SGCO/CIO METAR and TAF weather

Enter ICAO airport designator
Station Type Date Time Source
SGCO METAR 2018/12/03 21:00 UTC NOAA

SGCO 032100Z 18008KT CAVOK 26/14 Q1009


Station Type Date Time Source
SGCO Decoded METAR 2018/12/03 21:00 UTC NOAA

Concepcion, Paraguay (SGCO) 23-25S 057-18W 74M
Dec 03, 2018 - 04:00 PM EST / 2018.12.03 2100 UTC
Wind: from the S (180 degrees) at 9 MPH (8 KT):0
Visibility: greater than 7 mile(s):0
Temperature: 78 F (26 C)
Dew Point: 57 F (14 C)
Relative Humidity: 47%
Pressure (altimeter): 29.80 in. Hg (1009 hPa)
ob: SGCO 032100Z 18008KT CAVOK 26/14 Q1009
cycle: 21

Station Type Date Time Source
SGCO TAF 2018/12/15 06:00 UTC NOAA

TAF SGCO 150400Z 1506/1606 00000KT CAVOK TX37/1519Z TN26/1510Z
BECMG 1512/1515 01015KT 9999 SCT033
BECMG 1517/1520 VRB08KT 6000 TSRA BKN020 FEW040CB
BECMG 1521/1523 24008KT 9999 TS BKN027 FEW040CB


Example: see airport list